sensor_id;sensor_type;location;lat;lon;timestamp;pressure;altitude;pressure_sealevel;temperature;humidity
64876;BME280;51369;49.862;9.908;2022-07-22T00:01:16;98683.53;;;20.39;66.27
64876;BME280;51369;49.862;9.908;2022-07-22T00:03:42;98691.75;;;20.39;66.44
64876;BME280;51369;49.862;9.908;2022-07-22T00:06:07;98689.97;;;20.38;66.16
64876;BME280;51369;49.862;9.908;2022-07-22T00:08:33;98691.75;;;20.39;66.64
64876;BME280;51369;49.862;9.908;2022-07-22T00:10:59;98695.38;;;20.39;67.07
64876;BME280;51369;49.862;9.908;2022-07-22T00:13:25;98698.13;;;20.39;66.56
64876;BME280;51369;49.862;9.908;2022-07-22T00:15:50;98696.38;;;20.38;66.77
64876;BME280;51369;49.862;9.908;2022-07-22T00:18:16;98699.19;;;20.37;67.14
64876;BME280;51369;49.862;9.908;2022-07-22T00:20:42;98701.94;;;20.37;66.68
64876;BME280;51369;49.862;9.908;2022-07-22T00:23:08;98707.34;;;20.38;67.19
64876;BME280;51369;49.862;9.908;2022-07-22T00:25:34;98706.56;;;20.36;66.76
64876;BME280;51369;49.862;9.908;2022-07-22T00:28:00;98699.69;;;20.31;67.28
64876;BME280;51369;49.862;9.908;2022-07-22T00:30:26;98703.19;;;20.33;66.84
64876;BME280;51369;49.862;9.908;2022-07-22T00:32:52;98697.06;;;20.29;67.51
64876;BME280;51369;49.862;9.908;2022-07-22T00:35:19;98688.66;;;20.20;67.38
64876;BME280;51369;49.862;9.908;2022-07-22T00:37:45;98693.63;;;20.14;67.82
64876;BME280;51369;49.862;9.908;2022-07-22T00:40:12;98684.88;;;20.09;67.63
64876;BME280;51369;49.862;9.908;2022-07-22T00:42:38;98684.47;;;20.03;68.53
64876;BME280;51369;49.862;9.908;2022-07-22T00:45:05;98693.16;;;19.97;68.65
64876;BME280;51369;49.862;9.908;2022-07-22T00:47:33;98684.28;;;19.93;67.96
64876;BME280;51369;49.862;9.908;2022-07-22T00:49:58;98688.03;;;19.92;68.74
64876;BME280;51369;49.862;9.908;2022-07-22T00:52:24;98680.69;;;19.93;68.72
64876;BME280;51369;49.862;9.908;2022-07-22T00:54:50;98675.09;;;19.94;68.40
64876;BME280;51369;49.862;9.908;2022-07-22T00:57:17;98680.56;;;19.94;68.87
64876;BME280;51369;49.862;9.908;2022-07-22T00:59:43;98675.19;;;19.93;68.40
64876;BME280;51369;49.862;9.908;2022-07-22T01:02:09;98677.06;;;19.92;68.57
64876;BME280;51369;49.862;9.908;2022-07-22T01:04:36;98679.03;;;19.90;68.23
64876;BME280;51369;49.862;9.908;2022-07-22T01:07:02;98676.00;;;19.82;68.83
64876;BME280;51369;49.862;9.908;2022-07-22T01:09:28;98672.97;;;19.74;69.03
64876;BME280;51369;49.862;9.908;2022-07-22T01:11:54;98678.91;;;19.68;68.75
64876;BME280;51369;49.862;9.908;2022-07-22T01:14:19;98677.16;;;19.67;69.38
64876;BME280;51369;49.862;9.908;2022-07-22T01:16:45;98677.16;;;19.67;68.86
64876;BME280;51369;49.862;9.908;2022-07-22T01:19:11;98676.41;;;19.65;68.30
64876;BME280;51369;49.862;9.908;2022-07-22T01:21:37;98676.53;;;19.63;67.08
64876;BME280;51369;49.862;9.908;2022-07-22T01:24:03;98676.63;;;19.62;67.99
64876;BME280;51369;49.862;9.908;2022-07-22T01:26:29;98682.22;;;19.60;68.28
64876;BME280;51369;49.862;9.908;2022-07-22T01:28:55;98673.03;;;19.61;68.50
64876;BME280;51369;49.862;9.908;2022-07-22T01:31:21;98672.25;;;19.59;68.97
64876;BME280;51369;49.862;9.908;2022-07-22T01:33:47;98674.25;;;19.57;68.85
64876;BME280;51369;49.862;9.908;2022-07-22T01:36:12;98667.13;;;19.55;69.83
64876;BME280;51369;49.862;9.908;2022-07-22T01:38:38;98679.19;;;19.52;69.42
64876;BME280;51369;49.862;9.908;2022-07-22T01:41:04;98682.88;;;19.51;69.45
64876;BME280;51369;49.862;9.908;2022-07-22T01:43:31;98680.25;;;19.49;69.77
64876;BME280;51369;49.862;9.908;2022-07-22T01:45:57;98680.25;;;19.49;69.95
64876;BME280;51369;49.862;9.908;2022-07-22T01:48:23;98684.19;;;19.45;69.55
64876;BME280;51369;49.862;9.908;2022-07-22T01:50:50;98677.84;;;19.45;69.35
64876;BME280;51369;49.862;9.908;2022-07-22T01:53:17;98679.84;;;19.43;69.84
64876;BME280;51369;49.862;9.908;2022-07-22T01:55:44;98676.09;;;19.44;69.46
64876;BME280;51369;49.862;9.908;2022-07-22T01:58:10;98677.09;;;19.43;69.93
64876;BME280;51369;49.862;9.908;2022-07-22T02:00:37;98685.53;;;19.40;69.97
64876;BME280;51369;49.862;9.908;2022-07-22T02:03:04;98673.94;;;19.36;70.01
64876;BME280;51369;49.862;9.908;2022-07-22T02:05:31;98673.28;;;19.33;70.16
64876;BME280;51369;49.862;9.908;2022-07-22T02:08:05;98668.91;;;19.30;69.35
64876;BME280;51369;49.862;9.908;2022-07-22T02:10:50;98671.66;;;19.30;69.29
64876;BME280;51369;49.862;9.908;2022-07-22T02:13:15;98668.91;;;19.30;69.15
64876;BME280;51369;49.862;9.908;2022-07-22T02:15:42;98675.38;;;19.29;68.68
64876;BME280;51369;49.862;9.908;2022-07-22T02:18:14;98667.28;;;19.28;68.82
64876;BME280;51369;49.862;9.908;2022-07-22T02:20:42;98668.25;;;19.27;69.27
64876;BME280;51369;49.862;9.908;2022-07-22T02:23:08;98662.91;;;19.25;69.22
64876;BME280;51369;49.862;9.908;2022-07-22T02:25:37;98663.13;;;19.22;69.41
64876;BME280;51369;49.862;9.908;2022-07-22T02:28:03;98666.84;;;19.21;68.93
64876;BME280;51369;49.862;9.908;2022-07-22T02:30:29;98661.59;;;19.18;69.03
64876;BME280;51369;49.862;9.908;2022-07-22T02:32:57;98658.22;;;19.14;69.54
64876;BME280;51369;49.862;9.908;2022-07-22T02:35:23;98663.13;;;19.09;69.99
64876;BME280;51369;49.862;9.908;2022-07-22T02:37:49;98661.66;;;19.05;70.33
64876;BME280;51369;49.862;9.908;2022-07-22T02:40:14;98665.47;;;19.03;69.62
64876;BME280;51369;49.862;9.908;2022-07-22T02:42:41;98669.19;;;19.02;69.27
64876;BME280;51369;49.862;9.908;2022-07-22T02:45:07;98676.75;;;18.98;69.69
64876;BME280;51369;49.862;9.908;2022-07-22T02:47:33;98674.34;;;18.94;69.78
64876;BME280;51369;49.862;9.908;2022-07-22T02:49:59;98671.19;;;18.87;70.23
64876;BME280;51369;49.862;9.908;2022-07-22T02:52:26;98660.34;;;18.85;69.67
64876;BME280;51369;49.862;9.908;2022-07-22T02:54:52;98668.78;;;18.82;70.06
64876;BME280;51369;49.862;9.908;2022-07-22T02:57:17;98663.53;;;18.79;69.60
64876;BME280;51369;49.862;9.908;2022-07-22T02:59:43;98673.69;;;18.77;69.62
64876;BME280;51369;49.862;9.908;2022-07-22T03:02:09;98677.75;;;18.72;70.16
64876;BME280;51369;49.862;9.908;2022-07-22T03:04:35;98673.38;;;18.69;70.29
64876;BME280;51369;49.862;9.908;2022-07-22T03:07:01;98672.81;;;18.64;70.74
64876;BME280;51369;49.862;9.908;2022-07-22T03:09:28;98672.94;;;18.63;70.64
64876;BME280;51369;49.862;9.908;2022-07-22T03:11:54;98678.03;;;18.54;70.91
64876;BME280;51369;49.862;9.908;2022-07-22T03:14:19;98681.75;;;18.53;71.53
64876;BME280;51369;49.862;9.908;2022-07-22T03:16:45;98680.09;;;18.51;71.91
64876;BME280;51369;49.862;9.908;2022-07-22T03:19:11;98681.19;;;18.48;71.90
64876;BME280;51369;49.862;9.908;2022-07-22T03:21:37;98682.50;;;18.43;72.56
64876;BME280;51369;49.862;9.908;2022-07-22T03:24:02;98683.59;;;18.40;72.28
64876;BME280;51369;49.862;9.908;2022-07-22T03:26:30;98681.72;;;18.41;72.50
64876;BME280;51369;49.862;9.908;2022-07-22T03:28:57;98677.25;;;18.40;72.78
64876;BME280;51369;49.862;9.908;2022-07-22T03:31:22;98682.72;;;18.40;72.73
64876;BME280;51369;49.862;9.908;2022-07-22T03:33:48;98681.41;;;18.45;72.27
64876;BME280;51369;49.862;9.908;2022-07-22T03:36:14;98684.91;;;18.47;72.23
64876;BME280;51369;49.862;9.908;2022-07-22T03:38:41;98691.16;;;18.49;71.99
64876;BME280;51369;49.862;9.908;2022-07-22T03:41:08;98691.16;;;18.49;72.08
64876;BME280;51369;49.862;9.908;2022-07-22T03:43:33;98687.53;;;18.49;71.58
64876;BME280;51369;49.862;9.908;2022-07-22T03:46:01;98686.66;;;18.48;70.94
64876;BME280;51369;49.862;9.908;2022-07-22T03:48:27;98701.41;;;18.46;70.73
64876;BME280;51369;49.862;9.908;2022-07-22T03:50:53;98690.69;;;18.43;70.90
64876;BME280;51369;49.862;9.908;2022-07-22T03:53:19;98685.34;;;18.41;71.20
64876;BME280;51369;49.862;9.908;2022-07-22T03:55:45;98681.16;;;18.36;71.55
64876;BME280;51369;49.862;9.908;2022-07-22T03:58:11;98684.00;;;18.34;71.44
64876;BME280;51369;49.862;9.908;2022-07-22T04:00:38;98685.09;;;18.32;71.21
64876;BME280;51369;49.862;9.908;2022-07-22T04:03:05;98691.66;;;18.29;71.55
64876;BME280;51369;49.862;9.908;2022-07-22T04:05:54;98699.84;;;18.29;72.38
64876;BME280;51369;49.862;9.908;2022-07-22T04:08:31;98696.25;;;18.29;72.15
64876;BME280;51369;49.862;9.908;2022-07-22T04:10:56;98686.41;;;18.26;72.43
64876;BME280;51369;49.862;9.908;2022-07-22T04:13:22;98683.78;;;18.25;72.64
64876;BME280;51369;49.862;9.908;2022-07-22T04:15:52;98688.47;;;18.23;73.22
64876;BME280;51369;49.862;9.908;2022-07-22T04:18:18;98685.72;;;18.23;73.62
64876;BME280;51369;49.862;9.908;2022-07-22T04:20:45;98683.09;;;18.21;73.36
64876;BME280;51369;49.862;9.908;2022-07-22T04:23:32;98683.22;;;18.19;73.46
64876;BME280;51369;49.862;9.908;2022-07-22T04:26:15;98681.34;;;18.20;72.85
64876;BME280;51369;49.862;9.908;2022-07-22T04:28:40;98678.63;;;18.20;73.13
64876;BME280;51369;49.862;9.908;2022-07-22T04:31:06;98678.50;;;18.21;73.03
64876;BME280;51369;49.862;9.908;2022-07-22T04:33:33;98677.53;;;18.23;73.24
64876;BME280;51369;49.862;9.908;2022-07-22T04:35:59;98681.16;;;18.23;72.43
64876;BME280;51369;49.862;9.908;2022-07-22T04:38:25;98677.44;;;18.24;71.83
64876;BME280;51369;49.862;9.908;2022-07-22T04:40:56;98684.75;;;18.24;70.61
64876;BME280;51369;49.862;9.908;2022-07-22T04:43:23;98695.69;;;18.24;71.64
64876;BME280;51369;49.862;9.908;2022-07-22T04:45:49;98693.06;;;18.22;72.24
64876;BME280;51369;49.862;9.908;2022-07-22T04:48:16;98693.06;;;18.22;72.71
64876;BME280;51369;49.862;9.908;2022-07-22T04:50:42;98688.56;;;18.21;73.14
64876;BME280;51369;49.862;9.908;2022-07-22T04:53:08;98687.47;;;18.24;73.33
64876;BME280;51369;49.862;9.908;2022-07-22T04:55:34;98691.75;;;18.28;73.30
64876;BME280;51369;49.862;9.908;2022-07-22T04:57:59;98693.41;;;18.30;73.68
64876;BME280;51369;49.862;9.908;2022-07-22T05:00:26;98686.84;;;18.33;74.17
64876;BME280;51369;49.862;9.908;2022-07-22T05:02:54;98681.16;;;18.36;74.10
64876;BME280;51369;49.862;9.908;2022-07-22T05:05:20;98686.31;;;18.40;74.05
64876;BME280;51369;49.862;9.908;2022-07-22T05:07:47;98684.25;;;18.44;73.83
64876;BME280;51369;49.862;9.908;2022-07-22T05:10:13;98686.78;;;18.47;74.06
64876;BME280;51369;49.862;9.908;2022-07-22T05:12:39;98691.03;;;18.51;73.50
64876;BME280;51369;49.862;9.908;2022-07-22T05:15:05;98695.63;;;18.50;73.09
64876;BME280;51369;49.862;9.908;2022-07-22T05:17:33;98704.59;;;18.52;72.75
64876;BME280;51369;49.862;9.908;2022-07-22T05:20:06;98700.88;;;18.53;73.48
64876;BME280;51369;49.862;9.908;2022-07-22T05:22:33;98706.03;;;18.58;73.21
64876;BME280;51369;49.862;9.908;2022-07-22T05:25:03;98702.31;;;18.59;72.87
64876;BME280;51369;49.862;9.908;2022-07-22T05:27:29;98703.88;;;18.63;72.96
64876;BME280;51369;49.862;9.908;2022-07-22T05:29:56;98706.28;;;18.68;73.07
64876;BME280;51369;49.862;9.908;2022-07-22T05:32:22;98709.47;;;18.74;72.76
64876;BME280;51369;49.862;9.908;2022-07-22T05:34:51;98708.59;;;18.87;73.04
64876;BME280;51369;49.862;9.908;2022-07-22T05:37:17;98706.19;;;18.95;72.83
64876;BME280;51369;49.862;9.908;2022-07-22T05:39:43;98709.91;;;19.06;72.70
64876;BME280;51369;49.862;9.908;2022-07-22T05:42:09;98712.94;;;19.14;71.74
64876;BME280;51369;49.862;9.908;2022-07-22T05:44:34;98704.06;;;19.24;71.32
64876;BME280;51369;49.862;9.908;2022-07-22T05:47:00;98701.66;;;19.32;71.13
64876;BME280;51369;49.862;9.908;2022-07-22T05:49:25;98701.97;;;19.40;70.58
64876;BME280;51369;49.862;9.908;2022-07-22T05:51:58;98696.78;;;19.48;69.46
64876;BME280;51369;49.862;9.908;2022-07-22T05:54:26;98691.66;;;19.56;70.27
64876;BME280;51369;49.862;9.908;2022-07-22T05:56:52;98698.53;;;19.62;69.79
64876;BME280;51369;49.862;9.908;2022-07-22T05:59:18;98703.56;;;19.68;68.84
64876;BME280;51369;49.862;9.908;2022-07-22T06:01:43;98704.75;;;19.76;68.54
64876;BME280;51369;49.862;9.908;2022-07-22T06:04:29;98693.56;;;19.79;65.65
64876;BME280;51369;49.862;9.908;2022-07-22T06:06:54;98705.03;;;19.85;65.91
64876;BME280;51369;49.862;9.908;2022-07-22T06:09:20;98701.97;;;19.89;66.53
64876;BME280;51369;49.862;9.908;2022-07-22T06:11:47;98699.00;;;19.92;67.08
64876;BME280;51369;49.862;9.908;2022-07-22T06:14:13;98708.59;;;19.98;67.39
64876;BME280;51369;49.862;9.908;2022-07-22T06:16:39;98709.38;;;20.00;64.71
64876;BME280;51369;49.862;9.908;2022-07-22T06:19:04;98700.78;;;20.04;65.59
64876;BME280;51369;49.862;9.908;2022-07-22T06:21:30;98704.94;;;20.10;66.70
64876;BME280;51369;49.862;9.908;2022-07-22T06:23:58;98707.09;;;20.18;66.97
64876;BME280;51369;49.862;9.908;2022-07-22T06:26:23;98712.88;;;20.26;65.64
64876;BME280;51369;49.862;9.908;2022-07-22T06:28:50;98713.16;;;20.34;66.93
64876;BME280;51369;49.862;9.908;2022-07-22T06:31:15;98714.47;;;20.41;65.58
64876;BME280;51369;49.862;9.908;2022-07-22T06:33:42;98702.91;;;20.49;64.53
64876;BME280;51369;49.862;9.908;2022-07-22T06:36:08;98702.53;;;20.53;64.20
64876;BME280;51369;49.862;9.908;2022-07-22T06:38:36;98707.78;;;20.56;65.00
64876;BME280;51369;49.862;9.908;2022-07-22T06:41:21;98708.19;;;20.63;64.83
64876;BME280;51369;49.862;9.908;2022-07-22T06:44:13;98714.19;;;20.68;66.10
64876;BME280;51369;49.862;9.908;2022-07-22T06:47:07;98703.59;;;20.74;65.39
64876;BME280;51369;49.862;9.908;2022-07-22T06:49:33;98711.59;;;20.77;65.75
64876;BME280;51369;49.862;9.908;2022-07-22T06:51:59;98704.59;;;20.85;66.35
64876;BME280;51369;49.862;9.908;2022-07-22T06:54:26;98699.59;;;20.90;65.89
64876;BME280;51369;49.862;9.908;2022-07-22T06:56:55;98702.84;;;20.95;65.01
64876;BME280;51369;49.862;9.908;2022-07-22T06:59:27;98704.88;;;21.04;64.57
64876;BME280;51369;49.862;9.908;2022-07-22T07:01:54;98696.13;;;21.10;64.99
64876;BME280;51369;49.862;9.908;2022-07-22T07:04:20;98690.03;;;21.18;64.06
64876;BME280;51369;49.862;9.908;2022-07-22T07:06:46;98695.06;;;21.24;63.95
64876;BME280;51369;49.862;9.908;2022-07-22T07:09:30;98682.44;;;21.32;64.39
64876;BME280;51369;49.862;9.908;2022-07-22T07:12:07;98683.69;;;21.39;64.43
64876;BME280;51369;49.862;9.908;2022-07-22T07:14:52;98680.44;;;21.46;63.11
64876;BME280;51369;49.862;9.908;2022-07-22T07:17:17;98679.94;;;21.52;63.38
64876;BME280;51369;49.862;9.908;2022-07-22T07:19:43;98676.94;;;21.55;61.12
64876;BME280;51369;49.862;9.908;2022-07-22T07:22:08;98672.06;;;21.58;61.56
64876;BME280;51369;49.862;9.908;2022-07-22T07:24:34;98665.19;;;21.64;63.39
64876;BME280;51369;49.862;9.908;2022-07-22T07:27:00;98667.53;;;21.68;62.98
64876;BME280;51369;49.862;9.908;2022-07-22T07:29:25;98662.16;;;21.78;63.55
64876;BME280;51369;49.862;9.908;2022-07-22T07:31:52;98670.63;;;21.86;64.01
64876;BME280;51369;49.862;9.908;2022-07-22T07:34:17;98668.59;;;21.99;64.52
64876;BME280;51369;49.862;9.908;2022-07-22T07:36:43;98663.09;;;22.11;63.14
64876;BME280;51369;49.862;9.908;2022-07-22T07:39:11;98659.16;;;22.24;63.49
64876;BME280;51369;49.862;9.908;2022-07-22T07:41:36;98665.34;;;22.37;63.09
64876;BME280;51369;49.862;9.908;2022-07-22T07:44:02;98666.16;;;22.49;62.25
64876;BME280;51369;49.862;9.908;2022-07-22T07:46:28;98664.94;;;22.63;61.60
64876;BME280;51369;49.862;9.908;2022-07-22T07:48:55;98657.97;;;22.80;61.03
64876;BME280;51369;49.862;9.908;2022-07-22T07:51:20;98657.63;;;22.94;61.44
64876;BME280;51369;49.862;9.908;2022-07-22T07:53:46;98654.38;;;23.10;61.62
64876;BME280;51369;49.862;9.908;2022-07-22T07:56:12;98655.47;;;23.28;60.93
64876;BME280;51369;49.862;9.908;2022-07-22T07:58:38;98651.78;;;23.48;60.31
64876;BME280;51369;49.862;9.908;2022-07-22T08:01:05;98641.16;;;23.74;59.83
64876;BME280;51369;49.862;9.908;2022-07-22T08:03:31;98635.09;;;23.99;59.33
64876;BME280;51369;49.862;9.908;2022-07-22T08:05:56;98640.34;;;24.22;58.47
64876;BME280;51369;49.862;9.908;2022-07-22T08:08:25;98635.41;;;24.45;57.75
64876;BME280;51369;49.862;9.908;2022-07-22T08:10:52;98642.50;;;24.66;55.97
64876;BME280;51369;49.862;9.908;2022-07-22T08:13:27;98642.78;;;24.83;55.60
64876;BME280;51369;49.862;9.908;2022-07-22T08:16:06;98639.56;;;24.97;55.67
64876;BME280;51369;49.862;9.908;2022-07-22T08:18:32;98646.81;;;25.08;54.42
64876;BME280;51369;49.862;9.908;2022-07-22T08:20:58;98640.09;;;25.10;54.37
64876;BME280;51369;49.862;9.908;2022-07-22T08:23:39;98635.31;;;25.12;54.24
64876;BME280;51369;49.862;9.908;2022-07-22T08:26:04;98641.13;;;25.09;54.08
64876;BME280;51369;49.862;9.908;2022-07-22T08:28:31;98640.00;;;25.02;53.91
64876;BME280;51369;49.862;9.908;2022-07-22T08:30:57;98635.78;;;24.98;54.57
64876;BME280;51369;49.862;9.908;2022-07-22T08:33:22;98638.25;;;24.91;53.96
64876;BME280;51369;49.862;9.908;2022-07-22T08:35:48;98638.13;;;24.83;54.44
64876;BME280;51369;49.862;9.908;2022-07-22T08:38:14;98635.38;;;24.74;54.73
64876;BME280;51369;49.862;9.908;2022-07-22T08:40:39;98623.75;;;24.70;54.09
64876;BME280;51369;49.862;9.908;2022-07-22T08:43:05;98629.88;;;24.64;55.19
64876;BME280;51369;49.862;9.908;2022-07-22T08:45:32;98624.78;;;24.59;54.76
64876;BME280;51369;49.862;9.908;2022-07-22T08:47:58;98620.44;;;24.57;55.18
64876;BME280;51369;49.862;9.908;2022-07-22T08:50:46;98615.91;;;24.65;55.53
64876;BME280;51369;49.862;9.908;2022-07-22T08:53:18;98619.09;;;24.71;55.51
64876;BME280;51369;49.862;9.908;2022-07-22T08:55:47;98611.81;;;24.79;55.36
64876;BME280;51369;49.862;9.908;2022-07-22T08:58:13;98618.59;;;24.94;55.74
64876;BME280;51369;49.862;9.908;2022-07-22T09:00:40;98618.41;;;25.15;55.66
64876;BME280;51369;49.862;9.908;2022-07-22T09:03:32;98614.03;;;25.50;54.58
64876;BME280;51369;49.862;9.908;2022-07-22T09:05:59;98606.47;;;25.79;54.01
64876;BME280;51369;49.862;9.908;2022-07-22T09:08:26;98604.19;;;26.10;52.84
64876;BME280;51369;49.862;9.908;2022-07-22T09:11:19;98608.31;;;26.42;51.86
64876;BME280;51369;49.862;9.908;2022-07-22T09:14:04;98610.16;;;26.77;52.37
64876;BME280;51369;49.862;9.908;2022-07-22T09:16:49;98611.66;;;27.15;51.94
64876;BME280;51369;49.862;9.908;2022-07-22T09:19:33;98610.81;;;27.57;50.74
64876;BME280;51369;49.862;9.908;2022-07-22T09:22:40;98613.56;;;27.99;49.24
64876;BME280;51369;49.862;9.908;2022-07-22T09:25:34;98601.97;;;28.19;48.35
64876;BME280;51369;49.862;9.908;2022-07-22T09:28:21;98604.97;;;28.34;47.88
64876;BME280;51369;49.862;9.908;2022-07-22T09:31:06;98607.75;;;28.42;47.32
64876;BME280;51369;49.862;9.908;2022-07-22T09:33:36;98605.84;;;28.51;47.53
64876;BME280;51369;49.862;9.908;2022-07-22T09:36:18;98603.06;;;28.67;47.42
64876;BME280;51369;49.862;9.908;2022-07-22T09:38:43;98600.81;;;28.87;47.20
64876;BME280;51369;49.862;9.908;2022-07-22T09:41:09;98606.69;;;29.08;46.79
64876;BME280;51369;49.862;9.908;2022-07-22T09:43:36;98593.78;;;29.32;47.31
64876;BME280;51369;49.862;9.908;2022-07-22T09:46:03;98597.84;;;29.60;45.51
64876;BME280;51369;49.862;9.908;2022-07-22T09:48:50;98593.16;;;29.92;45.42
64876;BME280;51369;49.862;9.908;2022-07-22T09:51:48;98596.25;;;30.28;44.80
64876;BME280;51369;49.862;9.908;2022-07-22T09:54:50;98596.91;;;30.61;43.72
64876;BME280;51369;49.862;9.908;2022-07-22T09:57:17;98588.09;;;30.72;43.34
64876;BME280;51369;49.862;9.908;2022-07-22T09:59:45;98588.00;;;30.80;42.42
64876;BME280;51369;49.862;9.908;2022-07-22T10:02:45;98583.78;;;30.84;42.53
64876;BME280;51369;49.862;9.908;2022-07-22T10:05:12;98579.56;;;30.88;42.18
64876;BME280;51369;49.862;9.908;2022-07-22T10:07:40;98582.84;;;30.92;42.96
64876;BME280;51369;49.862;9.908;2022-07-22T10:10:11;98576.13;;;31.01;43.36
64876;BME280;51369;49.862;9.908;2022-07-22T10:12:37;98573.38;;;31.16;42.68
64876;BME280;51369;49.862;9.908;2022-07-22T10:15:05;98577.88;;;31.31;40.78
64876;BME280;51369;49.862;9.908;2022-07-22T10:17:32;98575.75;;;31.48;40.66
64876;BME280;51369;49.862;9.908;2022-07-22T10:19:58;98580.47;;;31.62;40.08
64876;BME280;51369;49.862;9.908;2022-07-22T10:25:05;98559.94;;;31.85;39.70
64876;BME280;51369;49.862;9.908;2022-07-22T10:27:54;98559.28;;;31.83;39.11
64876;BME280;51369;49.862;9.908;2022-07-22T10:38:10;98543.03;;;32.08;38.89
64876;BME280;51369;49.862;9.908;2022-07-22T10:40:56;98541.91;;;32.02;38.07
64876;BME280;51369;49.862;9.908;2022-07-22T10:43:25;98544.81;;;31.94;37.28
64876;BME280;51369;49.862;9.908;2022-07-22T10:48:22;98546.84;;;31.85;38.08
64876;BME280;51369;49.862;9.908;2022-07-22T10:51:10;98539.53;;;31.84;37.22
64876;BME280;51369;49.862;9.908;2022-07-22T10:56:06;98547.81;;;32.14;39.37
64876;BME280;51369;49.862;9.908;2022-07-22T11:01:06;98530.63;;;32.53;38.02
64876;BME280;51369;49.862;9.908;2022-07-22T11:03:34;98527.47;;;32.62;38.40
64876;BME280;51369;49.862;9.908;2022-07-22T11:08:47;98524.94;;;32.95;37.71
64876;BME280;51369;49.862;9.908;2022-07-22T11:11:14;98520.09;;;33.11;37.70
64876;BME280;51369;49.862;9.908;2022-07-22T11:13:41;98513.50;;;33.25;37.71
64876;BME280;51369;49.862;9.908;2022-07-22T11:18:51;98509.16;;;33.50;36.45
64876;BME280;51369;49.862;9.908;2022-07-22T11:21:23;98510.91;;;33.58;37.47
64876;BME280;51369;49.862;9.908;2022-07-22T11:23:52;98517.63;;;33.70;36.68
64876;BME280;51369;49.862;9.908;2022-07-22T11:26:26;98505.75;;;33.61;36.11
64876;BME280;51369;49.862;9.908;2022-07-22T11:28:57;98501.41;;;33.52;36.71
64876;BME280;51369;49.862;9.908;2022-07-22T11:31:22;98496.22;;;33.49;37.51
64876;BME280;51369;49.862;9.908;2022-07-22T11:33:48;98496.69;;;33.59;37.55
64876;BME280;51369;49.862;9.908;2022-07-22T11:36:14;98492.88;;;33.74;36.71
64876;BME280;51369;49.862;9.908;2022-07-22T11:38:48;98487.34;;;33.87;36.16
64876;BME280;51369;49.862;9.908;2022-07-22T11:41:16;98492.34;;;34.05;36.32
64876;BME280;51369;49.862;9.908;2022-07-22T11:43:47;98491.06;;;34.14;35.59
64876;BME280;51369;49.862;9.908;2022-07-22T11:46:15;98484.38;;;34.21;35.89
64876;BME280;51369;49.862;9.908;2022-07-22T11:48:42;98481.59;;;34.21;34.86
64876;BME280;51369;49.862;9.908;2022-07-22T11:51:10;98480.50;;;34.22;35.50
64876;BME280;51369;49.862;9.908;2022-07-22T11:53:38;98475.34;;;34.26;34.29
64876;BME280;51369;49.862;9.908;2022-07-22T11:56:05;98465.00;;;34.20;35.06
64876;BME280;51369;49.862;9.908;2022-07-22T11:58:46;98461.53;;;34.11;34.59
64876;BME280;51369;49.862;9.908;2022-07-22T12:01:14;98466.28;;;34.17;34.88
64876;BME280;51369;49.862;9.908;2022-07-22T12:03:45;98451.84;;;34.27;34.86
64876;BME280;51369;49.862;9.908;2022-07-22T12:06:13;98450.59;;;34.43;35.23
64876;BME280;51369;49.862;9.908;2022-07-22T12:08:44;98450.38;;;34.44;33.84
64876;BME280;51369;49.862;9.908;2022-07-22T12:11:12;98452.31;;;34.44;35.46
64876;BME280;51369;49.862;9.908;2022-07-22T12:13:43;98440.66;;;34.53;34.79
64876;BME280;51369;49.862;9.908;2022-07-22T12:16:29;98441.50;;;34.61;34.83
64876;BME280;51369;49.862;9.908;2022-07-22T12:19:01;98436.50;;;34.69;33.69
64876;BME280;51369;49.862;9.908;2022-07-22T12:21:33;98431.97;;;34.68;33.52
64876;BME280;51369;49.862;9.908;2022-07-22T12:24:07;98434.34;;;34.71;33.23
64876;BME280;51369;49.862;9.908;2022-07-22T12:32:01;98437.81;;;34.86;33.08
64876;BME280;51369;49.862;9.908;2022-07-22T12:37:20;98423.53;;;34.95;33.79
64876;BME280;51369;49.862;9.908;2022-07-22T12:40:07;98423.31;;;34.96;33.59
64876;BME280;51369;49.862;9.908;2022-07-22T12:42:39;98420.50;;;34.96;32.01
64876;BME280;51369;49.862;9.908;2022-07-22T12:45:08;98418.38;;;34.78;32.06
64876;BME280;51369;49.862;9.908;2022-07-22T12:50:32;98411.25;;;34.69;33.54
64876;BME280;51369;49.862;9.908;2022-07-22T12:53:00;98416.03;;;34.82;34.15
64876;BME280;51369;49.862;9.908;2022-07-22T12:55:28;98406.69;;;35.01;34.03
64876;BME280;51369;49.862;9.908;2022-07-22T12:57:54;98408.75;;;35.26;34.18
64876;BME280;51369;49.862;9.908;2022-07-22T13:00:23;98407.34;;;35.54;33.28
64876;BME280;51369;49.862;9.908;2022-07-22T13:02:50;98403.97;;;35.84;32.93
64876;BME280;51369;49.862;9.908;2022-07-22T13:05:16;98399.25;;;36.09;32.69
64876;BME280;51369;49.862;9.908;2022-07-22T13:07:43;98403.88;;;36.29;32.42
64876;BME280;51369;49.862;9.908;2022-07-22T13:10:09;98408.03;;;36.44;32.25
64876;BME280;51369;49.862;9.908;2022-07-22T13:12:35;98404.00;;;36.59;32.86
64876;BME280;51369;49.862;9.908;2022-07-22T13:15:01;98406.28;;;36.68;30.76
64876;BME280;51369;49.862;9.908;2022-07-22T13:17:26;98402.56;;;36.49;30.48
64876;BME280;51369;49.862;9.908;2022-07-22T13:19:52;98404.75;;;36.23;31.75
64876;BME280;51369;49.862;9.908;2022-07-22T13:22:18;98391.09;;;36.01;31.27
64876;BME280;51369;49.862;9.908;2022-07-22T13:24:44;98394.16;;;35.93;32.72
64876;BME280;51369;49.862;9.908;2022-07-22T13:27:09;98386.59;;;35.94;31.13
64876;BME280;51369;49.862;9.908;2022-07-22T13:29:35;98383.22;;;35.85;31.79
64876;BME280;51369;49.862;9.908;2022-07-22T13:32:00;98375.06;;;35.70;31.80
64876;BME280;51369;49.862;9.908;2022-07-22T13:34:26;98373.84;;;35.60;33.38
64876;BME280;51369;49.862;9.908;2022-07-22T13:36:51;98385.72;;;35.62;32.54
64876;BME280;51369;49.862;9.908;2022-07-22T13:39:17;98377.91;;;35.64;33.73
64876;BME280;51369;49.862;9.908;2022-07-22T13:41:42;98371.16;;;35.71;32.49
64876;BME280;51369;49.862;9.908;2022-07-22T13:44:08;98374.44;;;35.68;32.22